Time;durP1;ratioP1;P1;durP2;ratioP2;P2;SDS_P1;SDS_P2;PMS_P1;PMS_P2;Temp;Humidity;BMP_temperature;BMP_pressure;BME280_temperature;BME280_humidity;BME280_pressure;Samples;Min_cycle;Max_cycle;Signal;HPM_P1;HPM_P2
2021/05/25 00:02:05;;;;;;;4.50;2.70;;;9.30;99.90;;;;;;5260138;27;20114;-64
2021/05/25 00:04:31;;;;;;;3.00;2.33;;;9.20;99.90;;;;;;5259914;27;20106;-65
2021/05/25 00:06:59;;;;;;;2.90;2.10;;;9.20;99.90;;;;;;5256806;27;20111;-61
2021/05/25 00:09:25;;;;;;;3.53;1.83;;;9.10;99.90;;;;;;5259985;27;20116;-63
2021/05/25 00:11:51;;;;;;;2.63;1.33;;;9.00;99.90;;;;;;5259953;27;20471;-62
2021/05/25 00:14:19;;;;;;;2.90;1.50;;;9.00;99.90;;;;;;5258657;27;20125;-61
2021/05/25 00:16:46;;;;;;;2.97;1.43;;;8.90;99.90;;;;;;5261626;27;20109;-63
2021/05/25 00:19:15;;;;;;;2.47;1.57;;;8.90;99.90;;;;;;5261000;27;20136;-62
2021/05/25 00:21:41;;;;;;;3.33;1.80;;;8.90;99.90;;;;;;5259581;27;20491;-63
2021/05/25 00:24:09;;;;;;;2.40;1.20;;;8.90;99.90;;;;;;5260666;27;20123;-63
2021/05/25 00:26:36;;;;;;;1.10;1.00;;;8.90;99.90;;;;;;5262421;27;20107;-64
2021/05/25 00:29:03;;;;;;;4.07;1.50;;;8.70;99.90;;;;;;5257373;27;20154;-61
2021/05/25 00:31:29;;;;;;;1.23;1.00;;;8.70;99.90;;;;;;5258275;27;20147;-61
2021/05/25 00:33:55;;;;;;;2.43;1.40;;;8.70;99.90;;;;;;5257589;27;20127;-62
2021/05/25 00:36:24;;;;;;;2.60;1.00;;;8.70;99.90;;;;;;5259144;27;20117;-61
2021/05/25 00:38:50;;;;;;;1.90;1.70;;;8.60;99.90;;;;;;5262440;27;20146;-63
2021/05/25 00:41:18;;;;;;;0.93;0.90;;;8.60;99.90;;;;;;5262899;27;20532;-64
2021/05/25 00:43:47;;;;;;;3.30;1.10;;;8.60;99.90;;;;;;5259830;27;20123;-62
2021/05/25 00:46:14;;;;;;;1.20;1.10;;;8.50;99.90;;;;;;5259914;27;20550;-63
2021/05/25 00:48:43;;;;;;;1.33;1.00;;;8.70;99.90;;;;;;5260174;27;20108;-63
2021/05/25 00:51:12;;;;;;;2.73;1.13;;;8.80;99.90;;;;;;5262842;27;20167;-64
2021/05/25 00:53:38;;;;;;;3.53;1.30;;;8.80;99.90;;;;;;5260591;27;20548;-64
2021/05/25 00:56:08;;;;;;;2.93;1.23;;;8.80;99.90;;;;;;5260587;27;20189;-63
2021/05/25 00:58:35;;;;;;;5.37;1.50;;;8.80;99.90;;;;;;5260901;27;20483;-63
2021/05/25 01:01:03;;;;;;;4.17;1.73;;;8.80;99.90;;;;;;5262275;27;20121;-62
2021/05/25 01:03:29;;;;;;;2.63;1.33;;;8.90;99.90;;;;;;5260276;27;20173;-64
2021/05/25 01:05:55;;;;;;;2.07;1.60;;;8.90;99.90;;;;;;5262307;27;20474;-63
2021/05/25 01:08:22;;;;;;;4.63;1.50;;;9.00;99.90;;;;;;5260457;27;20107;-64
2021/05/25 01:10:53;;;;;;;2.53;1.83;;;9.00;99.90;;;;;;5261412;27;20120;-63
2021/05/25 01:13:45;;;;;;;4.43;1.73;;;9.00;99.90;;;;;;5260559;27;20503;-63
2021/05/25 01:16:13;;;;;;;3.83;1.80;;;9.00;99.90;;;;;;5259676;27;20530;-64
2021/05/25 01:18:39;;;;;;;3.07;1.70;;;9.00;99.90;;;;;;5263516;27;20132;-63
2021/05/25 01:21:08;;;;;;;3.77;1.83;;;8.90;99.90;;;;;;5264111;27;20120;-65
2021/05/25 01:23:35;;;;;;;4.03;1.53;;;8.80;99.90;;;;;;5261835;27;20192;-64
2021/05/25 01:26:03;;;;;;;4.07;1.50;;;8.80;99.90;;;;;;5263306;27;20119;-63
2021/05/25 01:28:29;;;;;;;4.83;2.03;;;8.70;99.90;;;;;;5261492;27;20201;-63
2021/05/25 01:30:57;;;;;;;2.57;1.60;;;8.80;99.90;;;;;;5261801;27;20157;-63
2021/05/25 01:33:26;;;;;;;3.80;1.90;;;8.70;99.90;;;;;;5261734;27;20154;-62
2021/05/25 01:35:55;;;;;;;3.20;2.13;;;8.60;99.90;;;;;;5263217;27;20109;-62
2021/05/25 01:38:22;;;;;;;5.00;2.40;;;8.60;99.90;;;;;;5261340;27;20177;-64
2021/05/25 01:40:53;;;;;;;3.67;2.50;;;8.50;99.90;;;;;;5260863;27;20164;-63
2021/05/25 01:43:19;;;;;;;5.53;2.50;;;8.50;99.90;;;;;;5261102;27;20142;-63
2021/05/25 01:45:46;;;;;;;5.97;3.20;;;8.50;99.90;;;;;;5257673;27;20114;-62
2021/05/25 01:48:18;;;;;;;5.27;2.63;;;8.40;99.90;;;;;;5259778;27;20437;-62
2021/05/25 01:50:47;;;;;;;4.07;3.30;;;8.40;99.90;;;;;;5260156;27;20411;-64
2021/05/25 01:53:18;;;;;;;5.27;3.30;;;8.30;99.90;;;;;;5260474;27;20157;-64
2021/05/25 01:55:51;;;;;;;3.33;3.03;;;8.30;99.90;;;;;;5260658;27;20112;-63
2021/05/25 01:58:20;;;;;;;6.53;3.37;;;8.30;99.90;;;;;;5261870;27;20119;-62
2021/05/25 02:00:48;;;;;;;3.93;3.30;;;8.20;99.90;;;;;;5261366;27;20104;-63
2021/05/25 02:03:17;;;;;;;5.17;4.27;;;8.20;99.90;;;;;;5262246;27;20116;-62
2021/05/25 02:05:45;;;;;;;5.00;4.23;;;8.10;99.90;;;;;;5261313;27;20145;-64
2021/05/25 02:08:12;;;;;;;6.40;4.43;;;8.00;99.90;;;;;;5260965;27;20107;-64
2021/05/25 02:10:40;;;;;;;6.77;5.07;;;8.00;99.90;;;;;;5261275;27;20111;-62
2021/05/25 02:13:09;;;;;;;5.10;4.60;;;8.00;99.90;;;;;;5261447;27;20107;-63
2021/05/25 02:15:37;;;;;;;7.73;5.40;;;8.00;99.90;;;;;;5262371;27;20119;-62
2021/05/25 02:18:07;;;;;;;9.13;6.17;;;7.90;99.90;;;;;;5261974;27;20107;-62
2021/05/25 02:20:36;;;;;;;9.03;5.43;;;7.90;99.90;;;;;;5263159;27;20123;-63
2021/05/25 02:23:03;;;;;;;9.27;6.83;;;7.90;99.90;;;;;;5260836;27;20150;-64
2021/05/25 02:25:29;;;;;;;9.60;6.60;;;7.90;99.90;;;;;;5261371;27;20176;-63
2021/05/25 02:27:56;;;;;;;10.40;7.30;;;7.80;99.90;;;;;;5261177;27;20154;-63
2021/05/25 02:30:23;;;;;;;10.57;7.77;;;7.80;99.90;;;;;;5262216;27;20122;-61
2021/05/25 02:32:50;;;;;;;10.70;8.23;;;7.80;99.90;;;;;;5260588;27;20520;-63
2021/05/25 02:35:17;;;;;;;9.10;7.37;;;7.80;99.90;;;;;;5260650;27;20140;-64
2021/05/25 02:37:43;;;;;;;12.60;8.97;;;7.80;99.90;;;;;;5263500;27;20123;-64
2021/05/25 02:40:11;;;;;;;12.73;8.77;;;7.80;99.90;;;;;;5261019;27;20531;-64
2021/05/25 02:42:37;;;;;;;12.37;9.03;;;7.80;99.90;;;;;;5260958;27;20121;-62
2021/05/25 02:45:05;;;;;;;9.87;8.00;;;7.80;99.90;;;;;;5261141;27;20122;-63
2021/05/25 02:47:32;;;;;;;15.40;9.50;;;7.80;99.90;;;;;;5261009;27;20133;-64
2021/05/25 02:50:06;;;;;;;16.20;9.87;;;7.80;99.90;;;;;;5261060;27;20106;-62
2021/05/25 02:52:32;;;;;;;12.80;9.40;;;7.70;99.90;;;;;;5261031;27;20126;-65
2021/05/25 02:54:59;;;;;;;13.83;9.40;;;7.70;99.90;;;;;;5261800;27;20134;-63
2021/05/25 02:57:25;;;;;;;12.10;9.17;;;7.60;99.90;;;;;;5261200;27;20113;-62
2021/05/25 02:59:51;;;;;;;12.73;8.77;;;7.60;99.90;;;;;;5261051;27;20122;-65
2021/05/25 03:02:18;;;;;;;13.60;9.00;;;7.60;99.90;;;;;;5261561;27;20120;-62
2021/05/25 03:04:45;;;;;;;15.87;9.00;;;7.60;99.90;;;;;;5260648;27;20133;-63
2021/05/25 03:07:12;;;;;;;11.87;8.83;;;7.60;99.90;;;;;;5260347;27;20111;-62
2021/05/25 03:09:38;;;;;;;10.40;8.93;;;7.60;99.90;;;;;;5260459;27;20111;-62
2021/05/25 03:12:08;;;;;;;13.97;9.03;;;7.60;99.90;;;;;;5262286;27;20155;-62
2021/05/25 03:14:35;;;;;;;14.30;9.03;;;7.60;99.90;;;;;;5261314;27;20143;-63
2021/05/25 03:17:01;;;;;;;12.43;8.83;;;7.50;99.90;;;;;;5260244;27;20115;-61
2021/05/25 03:19:28;;;;;;;13.07;8.70;;;7.50;99.90;;;;;;5260809;27;20117;-63
2021/05/25 03:21:55;;;;;;;11.70;8.60;;;7.50;99.90;;;;;;5260224;27;20199;-62
2021/05/25 03:24:22;;;;;;;13.47;9.00;;;7.50;99.90;;;;;;5260303;27;20136;-62
2021/05/25 03:26:48;;;;;;;9.57;7.87;;;7.40;99.90;;;;;;5260695;27;20142;-65
2021/05/25 03:29:14;;;;;;;11.03;8.30;;;7.40;99.90;;;;;;5260811;27;20107;-64
2021/05/25 03:31:41;;;;;;;11.13;8.07;;;7.50;99.90;;;;;;5261462;27;20519;-64
2021/05/25 03:34:07;;;;;;;8.80;7.40;;;7.40;99.90;;;;;;5260879;27;20179;-62
2021/05/25 03:36:34;;;;;;;10.23;7.50;;;7.40;99.90;;;;;;5260831;27;20104;-62
2021/05/25 03:39:01;;;;;;;12.50;8.17;;;7.40;99.90;;;;;;5261226;27;20122;-62
2021/05/25 03:41:28;;;;;;;11.23;7.40;;;7.40;99.90;;;;;;5260363;27;20107;-61
2021/05/25 03:43:54;;;;;;;9.37;7.10;;;7.30;99.90;;;;;;5261052;27;20438;-62
2021/05/25 03:46:20;;;;;;;9.57;7.50;;;7.30;99.90;;;;;;5242512;27;20209;-63
2021/05/25 03:48:47;;;;;;;12.13;6.50;;;7.30;99.90;;;;;;5260324;27;20107;-64
2021/05/25 03:51:16;;;;;;;11.20;7.83;;;7.30;99.90;;;;;;5260762;27;20122;-62
2021/05/25 03:53:42;;;;;;;10.60;6.70;;;7.20;99.90;;;;;;5260679;27;20150;-63
2021/05/25 03:56:18;;;;;;;7.67;6.50;;;7.20;99.90;;;;;;5261075;27;20507;-62
2021/05/25 03:58:48;;;;;;;11.43;7.40;;;7.20;99.90;;;;;;5260436;27;20123;-63
2021/05/25 04:01:19;;;;;;;9.23;6.83;;;7.30;99.90;;;;;;5260447;27;20119;-63
2021/05/25 04:03:46;;;;;;;11.73;6.60;;;7.30;99.90;;;;;;5260558;27;20123;-64
2021/05/25 04:06:14;;;;;;;7.97;6.50;;;7.30;99.90;;;;;;5261244;27;20118;-63
2021/05/25 04:08:41;;;;;;;9.30;6.97;;;7.30;99.90;;;;;;5260702;27;20129;-61
2021/05/25 04:11:09;;;;;;;7.93;6.93;;;7.50;99.90;;;;;;5260335;27;20122;-63
2021/05/25 04:13:35;;;;;;;9.07;6.87;;;7.40;99.90;;;;;;5260623;27;20556;-62
2021/05/25 04:16:02;;;;;;;9.63;7.43;;;7.40;99.90;;;;;;5262369;27;20149;-63
2021/05/25 04:18:29;;;;;;;13.20;7.77;;;7.40;99.90;;;;;;5260594;27;20153;-63
2021/05/25 04:20:56;;;;;;;10.67;7.53;;;7.50;99.90;;;;;;5260531;27;20470;-62
2021/05/25 04:23:22;;;;;;;9.07;8.13;;;7.70;99.90;;;;;;5260309;27;20150;-63
2021/05/25 04:25:48;;;;;;;11.87;7.37;;;7.80;99.90;;;;;;5260220;27;20234;-63
2021/05/25 04:28:16;;;;;;;8.90;7.03;;;8.00;99.90;;;;;;5262351;27;20107;-62
2021/05/25 04:30:43;;;;;;;13.00;7.33;;;8.10;99.90;;;;;;5260097;27;20115;-62
2021/05/25 04:33:09;;;;;;;8.47;6.73;;;8.20;99.90;;;;;;5259718;27;20154;-62
2021/05/25 04:35:35;;;;;;;10.70;7.70;;;8.20;99.90;;;;;;5260377;27;20109;-62
2021/05/25 04:38:03;;;;;;;9.47;7.63;;;8.10;99.90;;;;;;5260106;27;20160;-63
2021/05/25 04:40:29;;;;;;;10.20;7.83;;;8.10;99.90;;;;;;5261980;27;20176;-64
2021/05/25 04:42:56;;;;;;;10.97;7.80;;;8.10;99.90;;;;;;5260395;27;20112;-62
2021/05/25 04:45:25;;;;;;;11.87;7.70;;;8.00;99.90;;;;;;5260454;27;20432;-63
2021/05/25 04:47:52;;;;;;;10.20;7.80;;;8.10;99.90;;;;;;5261556;27;20137;-62
2021/05/25 04:50:19;;;;;;;10.87;7.90;;;8.20;99.90;;;;;;5260311;27;20123;-62
2021/05/25 04:52:46;;;;;;;12.60;8.70;;;8.30;99.90;;;;;;5260731;27;20168;-63
2021/05/25 04:55:16;;;;;;;9.67;8.50;;;8.40;99.90;;;;;;5261630;27;20107;-63
2021/05/25 04:57:45;;;;;;;12.07;8.60;;;8.50;99.90;;;;;;5262086;27;20106;-62
2021/05/25 05:00:18;;;;;;;11.47;7.73;;;8.80;99.90;;;;;;5262846;27;20108;-62
2021/05/25 05:02:45;;;;;;;11.27;9.07;;;9.10;99.90;;;;;;5261729;27;20104;-61
2021/05/25 05:05:15;;;;;;;11.60;7.97;;;9.40;99.90;;;;;;5261496;27;20490;-62
2021/05/25 05:07:41;;;;;;;12.53;8.40;;;9.70;99.90;;;;;;5261566;27;20439;-61
2021/05/25 05:10:09;;;;;;;10.17;8.10;;;10.00;99.90;;;;;;5261711;27;20129;-63
2021/05/25 05:12:35;;;;;;;13.33;8.90;;;9.90;99.90;;;;;;5261167;27;20108;-64
2021/05/25 05:15:03;;;;;;;12.10;8.87;;;10.00;99.90;;;;;;5261413;27;20145;-64
2021/05/25 05:17:30;;;;;;;11.43;9.10;;;10.40;99.90;;;;;;5262766;27;20186;-62
2021/05/25 05:20:02;;;;;;;11.97;9.20;;;11.00;99.90;;;;;;5261420;27;20138;-63
2021/05/25 05:22:31;;;;;;;11.07;6.87;;;12.10;99.90;;;;;;5262408;27;20111;-63
2021/05/25 05:24:58;;;;;;;12.70;6.73;;;14.80;99.90;;;;;;5260919;27;20158;-63
2021/05/25 05:27:27;;;;;;;9.87;5.40;;;17.70;99.90;;;;;;5261565;27;20107;-63
2021/05/25 05:29:54;;;;;;;7.53;5.60;;;17.70;96.70;;;;;;5262111;27;20545;-63
2021/05/25 05:32:21;;;;;;;5.70;5.20;;;16.90;99.10;;;;;;5261183;27;20142;-63
2021/05/25 05:34:48;;;;;;;8.47;6.33;;;15.60;99.50;;;;;;5262765;27;20108;-63
2021/05/25 05:37:15;;;;;;;6.47;5.70;;;14.70;99.90;;;;;;5261860;27;20121;-63
2021/05/25 05:39:43;;;;;;;6.90;5.77;;;15.10;99.90;;;;;;5261178;27;20107;-63
2021/05/25 05:42:10;;;;;;;7.63;6.40;;;15.60;99.90;;;;;;5261227;27;20155;-63
2021/05/25 05:44:37;;;;;;;7.27;6.30;;;15.80;99.90;;;;;;5261530;27;20104;-62
2021/05/25 05:47:04;;;;;;;6.53;5.93;;;15.80;99.90;;;;;;5260673;27;20121;-64
2021/05/25 05:49:31;;;;;;;6.80;6.03;;;15.90;99.90;;;;;;5260039;27;20158;-64
2021/05/25 05:51:58;;;;;;;7.73;5.73;;;15.70;99.90;;;;;;5262009;27;20162;-64
2021/05/25 05:54:25;;;;;;;10.10;6.00;;;15.40;99.90;;;;;;5261522;27;20111;-63
2021/05/25 05:56:51;;;;;;;8.07;6.43;;;15.50;99.00;;;;;;5260443;27;20111;-63
2021/05/25 05:59:18;;;;;;;7.00;6.30;;;14.30;99.90;;;;;;5261197;27;20119;-64
2021/05/25 06:01:46;;;;;;;6.67;5.97;;;14.80;99.90;;;;;;5260979;27;20120;-64
2021/05/25 06:04:13;;;;;;;9.73;6.30;;;14.70;99.90;;;;;;5262141;27;20133;-64
2021/05/25 06:06:39;;;;;;;9.23;6.53;;;14.10;99.90;;;;;;5261109;27;20551;-63
2021/05/25 06:09:06;;;;;;;9.60;6.73;;;13.80;99.90;;;;;;5260596;27;20442;-63
2021/05/25 06:11:34;;;;;;;7.67;6.03;;;13.20;99.90;;;;;;5263318;27;20535;-62
2021/05/25 06:14:00;;;;;;;7.07;6.33;;;13.20;99.90;;;;;;5261385;27;20107;-62
2021/05/25 06:16:30;;;;;;;9.67;6.27;;;13.50;99.90;;;;;;5261432;27;20111;-62
2021/05/25 06:18:57;;;;;;;8.13;6.30;;;13.80;99.90;;;;;;5260585;27;20439;-62
2021/05/25 06:21:23;;;;;;;9.23;7.13;;;13.90;99.90;;;;;;5260568;27;20122;-63
2021/05/25 06:23:49;;;;;;;7.93;6.30;;;13.80;99.90;;;;;;5260680;27;20212;-63
2021/05/25 06:26:16;;;;;;;9.37;7.20;;;13.60;99.90;;;;;;5261045;27;20122;-63
2021/05/25 06:28:43;;;;;;;8.97;7.20;;;13.40;99.90;;;;;;5263484;27;20145;-64
2021/05/25 06:31:11;;;;;;;11.17;7.20;;;13.20;99.90;;;;;;5261044;27;20452;-64
2021/05/25 06:33:38;;;;;;;8.93;7.63;;;13.00;99.90;;;;;;5261890;27;20112;-62
2021/05/25 06:36:07;;;;;;;8.23;7.37;;;12.80;99.90;;;;;;5262456;27;20106;-63
2021/05/25 06:38:35;;;;;;;10.80;8.53;;;12.60;99.90;;;;;;5261173;27;20126;-63
2021/05/25 06:41:01;;;;;;;10.43;7.57;;;12.60;99.90;;;;;;5261500;27;20110;-63
2021/05/25 06:43:28;;;;;;;13.27;10.40;;;12.50;99.90;;;;;;5263256;27;20164;-63
2021/05/25 06:45:55;;;;;;;11.10;9.53;;;12.20;99.90;;;;;;5254605;27;20125;-63
2021/05/25 06:48:21;;;;;;;11.70;9.87;;;12.20;99.90;;;;;;5254301;27;20111;-63
2021/05/25 06:50:48;;;;;;;13.50;9.23;;;11.90;99.90;;;;;;5260382;27;20146;-63
2021/05/25 06:53:16;;;;;;;11.23;10.03;;;11.80;99.90;;;;;;5260749;27;20107;-64
2021/05/25 06:55:43;;;;;;;14.67;9.83;;;11.70;99.90;;;;;;5259156;27;20127;-63
2021/05/25 06:58:09;;;;;;;10.10;9.00;;;11.70;99.90;;;;;;5259854;27;20547;-64
2021/05/25 07:00:36;;;;;;;9.73;8.63;;;12.00;99.90;;;;;;5258831;27;20145;-64
2021/05/25 07:03:03;;;;;;;11.20;8.37;;;12.30;99.90;;;;;;5260129;27;20131;-64
2021/05/25 07:05:30;;;;;;;8.03;7.20;;;12.80;99.90;;;;;;5259399;27;20192;-64
2021/05/25 07:07:56;;;;;;;9.20;7.77;;;12.80;99.90;;;;;;5260508;27;20550;-62
2021/05/25 07:10:23;;;;;;;9.60;6.50;;;12.90;99.90;;;;;;5260450;27;20131;-63
2021/05/25 07:12:49;;;;;;;9.07;7.10;;;13.60;99.90;;;;;;5260164;27;20122;-62
2021/05/25 07:15:16;;;;;;;7.17;5.87;;;14.00;99.90;;;;;;5259881;27;20534;-62
2021/05/25 07:17:55;;;;;;;12.30;5.90;;;13.80;99.90;;;;;;5260622;27;20107;-62
2021/05/25 07:20:28;;;;;;;9.97;5.33;;;14.20;99.90;;;;;;5261290;27;20107;-62
2021/05/25 07:22:55;;;;;;;7.93;4.07;;;15.40;99.90;;;;;;5259688;27;20187;-62
2021/05/25 07:25:25;;;;;;;5.13;3.90;;;15.20;99.90;;;;;;5260917;27;20537;-61
2021/05/25 07:27:52;;;;;;;6.87;3.93;;;14.80;99.90;;;;;;5262178;27;20118;-62
2021/05/25 07:30:20;;;;;;;4.37;3.53;;;15.60;99.90;;;;;;5260392;27;20107;-62
2021/05/25 07:32:47;;;;;;;5.30;3.03;;;17.10;99.90;;;;;;5261508;27;20107;-62
2021/05/25 07:35:14;;;;;;;8.17;3.27;;;18.90;99.30;;;;;;5260076;27;20435;-63
2021/05/25 07:37:41;;;;;;;6.00;2.80;;;20.10;96.10;;;;;;5260464;27;20139;-62
2021/05/25 07:40:09;;;;;;;5.97;2.73;;;21.50;94.50;;;;;;5260430;27;20103;-62
2021/05/25 07:42:36;;;;;;;6.17;2.67;;;23.70;90.40;;;;;;5260445;27;20223;-62
2021/05/25 07:45:02;;;;;;;5.43;2.17;;;26.40;75.50;;;;;;5259921;27;20117;-63
2021/05/25 07:47:29;;;;;;;7.03;2.67;;;29.80;61.20;;;;;;5261030;27;20146;-63
2021/05/25 07:50:12;;;;;;;4.90;2.50;;;31.40;51.90;;;;;;5260197;27;20123;-62
2021/05/25 07:52:38;;;;;;;6.47;2.20;;;29.00;51.80;;;;;;5259953;27;20107;-63
2021/05/25 07:55:07;;;;;;;3.53;1.83;;;26.60;55.40;;;;;;5261496;27;20506;-62
2021/05/25 07:57:34;;;;;;;3.77;2.07;;;24.50;61.90;;;;;;5261348;27;20104;-62
2021/05/25 08:00:00;;;;;;;9.57;3.13;;;22.40;71.30;;;;;;5260021;27;20150;-63
2021/05/25 08:02:27;;;;;;;8.77;2.50;;;19.90;82.50;;;;;;5260369;27;20135;-62
2021/05/25 08:04:53;;;;;;;3.43;2.43;;;18.40;92.20;;;;;;5260386;27;20111;-62
2021/05/25 08:07:19;;;;;;;6.77;2.70;;;18.10;92.80;;;;;;5260622;27;20122;-62
2021/05/25 08:09:46;;;;;;;8.50;3.07;;;17.60;94.80;;;;;;5259968;27;20107;-62
2021/05/25 08:12:14;;;;;;;7.37;2.77;;;18.10;94.80;;;;;;5260122;27;20223;-62
2021/05/25 08:14:41;;;;;;;6.40;2.73;;;17.90;94.90;;;;;;5260197;27;20142;-62
2021/05/25 08:17:18;;;;;;;7.83;2.33;;;17.50;96.20;;;;;;5262154;27;20473;-62
2021/05/25 08:19:47;;;;;;;4.00;1.33;;;16.60;95.40;;;;;;5262710;27;20111;-63
2021/05/25 08:22:15;;;;;;;3.67;1.10;;;15.50;95.40;;;;;;5259557;27;20232;-62
2021/05/25 08:24:45;;;;;;;5.07;1.50;;;14.70;97.00;;;;;;5259438;27;20620;-63
2021/05/25 08:27:14;;;;;;;5.83;1.47;;;13.40;99.90;;;;;;5261415;27;20107;-63
2021/05/25 08:29:43;;;;;;;9.60;1.97;;;12.50;99.90;;;;;;5261685;27;20177;-63
2021/05/25 08:32:14;;;;;;;3.40;1.60;;;11.80;99.90;;;;;;5261570;27;20135;-63
2021/05/25 08:34:42;;;;;;;6.90;1.73;;;11.20;99.90;;;;;;5264135;27;20149;-63
2021/05/25 08:37:08;;;;;;;3.77;1.57;;;10.90;99.90;;;;;;5261966;27;20107;-63
2021/05/25 08:39:35;;;;;;;7.87;2.03;;;10.80;99.90;;;;;;5261823;27;20139;-64
2021/05/25 08:42:02;;;;;;;9.27;2.17;;;10.80;99.90;;;;;;5261594;27;20534;-63
2021/05/25 08:44:30;;;;;;;6.63;2.27;;;10.80;99.90;;;;;;5263282;27;20110;-62
2021/05/25 08:47:09;;;;;;;6.60;2.80;;;11.10;99.90;;;;;;5260835;27;20135;-63
2021/05/25 08:49:36;;;;;;;9.13;3.10;;;11.80;99.90;;;;;;5261339;27;20144;-65
2021/05/25 08:52:03;;;;;;;6.57;2.80;;;12.60;99.90;;;;;;5261063;27;20108;-65
2021/05/25 08:54:30;;;;;;;7.83;3.23;;;13.60;99.90;;;;;;5263219;27;20142;-64
2021/05/25 08:56:57;;;;;;;8.93;4.07;;;14.20;99.90;;;;;;5260917;27;20138;-65
2021/05/25 08:59:23;;;;;;;11.10;4.63;;;13.80;99.90;;;;;;5261495;27;20122;-62
2021/05/25 09:01:51;;;;;;;13.47;5.37;;;13.30;99.90;;;;;;5261943;27;20193;-65
2021/05/25 09:04:18;;;;;;;8.37;5.00;;;12.80;99.90;;;;;;5262163;27;20190;-64
2021/05/25 09:06:45;;;;;;;12.57;4.90;;;12.80;99.90;;;;;;5262662;27;20118;-62
2021/05/25 09:09:14;;;;;;;12.87;5.57;;;13.30;99.90;;;;;;5261447;27;20108;-65
2021/05/25 09:11:59;;;;;;;10.67;4.53;;;14.30;99.90;;;;;;5261637;27;20460;-65
2021/05/25 09:14:25;;;;;;;15.00;5.47;;;14.50;99.90;;;;;;5261560;27;20111;-64
2021/05/25 09:17:16;;;;;;;11.63;4.50;;;14.40;99.90;;;;;;5261674;27;20127;-65
2021/05/25 09:19:47;;;;;;;7.03;3.50;;;13.80;99.90;;;;;;5262312;27;20120;-63
2021/05/25 09:22:31;;;;;;;9.03;3.10;;;13.90;99.90;;;;;;5261278;27;20415;-63
2021/05/25 09:25:04;;;;;;;8.03;3.27;;;14.20;99.90;;;;;;5260703;27;20150;-64
2021/05/25 09:27:38;;;;;;;10.53;3.07;;;14.10;99.90;;;;;;5261347;27;20186;-64
2021/05/25 09:30:22;;;;;;;6.17;3.27;;;13.80;99.90;;;;;;5261268;27;20119;-63
2021/05/25 09:32:55;;;;;;;10.67;3.20;;;13.50;99.90;;;;;;5263391;27;20115;-62
2021/05/25 09:35:23;;;;;;;9.07;3.50;;;13.40;99.90;;;;;;5261225;27;20145;-62
2021/05/25 09:37:52;;;;;;;8.67;3.80;;;13.40;99.90;;;;;;5260958;27;20118;-64
2021/05/25 09:40:21;;;;;;;7.73;3.63;;;13.20;99.90;;;;;;5261017;27;20108;-64
2021/05/25 09:42:48;;;;;;;10.47;4.20;;;13.10;99.90;;;;;;5263677;27;20130;-63
2021/05/25 09:45:17;;;;;;;9.83;3.97;;;13.20;99.90;;;;;;5260879;27;20135;-64
2021/05/25 09:47:47;;;;;;;8.27;3.77;;;13.10;99.90;;;;;;5261183;27;20107;-63
2021/05/25 09:50:16;;;;;;;7.73;3.70;;;13.30;99.90;;;;;;5261068;27;20107;-62
2021/05/25 09:53:02;;;;;;;11.20;3.50;;;13.40;99.90;;;;;;5260959;27;20122;-62
2021/05/25 09:55:30;;;;;;;9.43;3.77;;;13.10;99.90;;;;;;5261899;27;20122;-63
2021/05/25 09:57:57;;;;;;;12.60;3.70;;;13.50;99.90;;;;;;5261096;27;20108;-62
2021/05/25 10:00:26;;;;;;;9.03;3.10;;;14.30;99.90;;;;;;5262214;27;20114;-62
2021/05/25 10:03:06;;;;;;;9.53;3.40;;;14.60;99.90;;;;;;5261111;27;20562;-62
2021/05/25 10:05:34;;;;;;;8.63;3.13;;;15.30;99.90;;;;;;5261484;27;20437;-62
2021/05/25 10:08:01;;;;;;;12.60;3.60;;;15.10;99.90;;;;;;5260307;27;20512;-62
2021/05/25 10:10:28;;;;;;;7.63;3.00;;;15.20;99.90;;;;;;5260999;27;20108;-62
2021/05/25 10:12:56;;;;;;;7.50;2.80;;;15.60;99.90;;;;;;5261480;27;20131;-61
2021/05/25 10:15:24;;;;;;;6.93;2.10;;;15.30;99.90;;;;;;5261791;27;20157;-63
2021/05/25 10:20:51;;;;;;;11.03;2.67;;;14.90;99.90;;;;;;5262777;27;20146;-62
2021/05/25 10:23:19;;;;;;;3.73;2.13;;;15.20;99.90;;;;;;5260502;27;20130;-62
2021/05/25 10:25:49;;;;;;;5.90;2.20;;;14.90;99.70;;;;;;5260942;27;20499;-63
2021/05/25 10:28:17;;;;;;;5.97;1.90;;;14.70;99.90;;;;;;5263910;27;20153;-63
2021/05/25 10:36:54;;;;;;;6.43;2.10;;;15.10;99.90;;;;;;5258948;27;20135;-63
2021/05/25 10:39:37;;;;;;;5.50;1.80;;;14.90;98.80;;;;;;5260342;27;20409;-64
2021/05/25 10:42:27;;;;;;;4.93;1.70;;;14.90;99.90;;;;;;5261296;27;20147;-62
2021/05/25 10:44:55;;;;;;;9.00;2.20;;;15.70;99.90;;;;;;5259342;27;20431;-62
2021/05/25 10:47:25;;;;;;;5.10;2.27;;;16.10;98.30;;;;;;5261879;27;20106;-63
2021/05/25 10:49:56;;;;;;;4.57;2.00;;;16.00;98.80;;;;;;5260540;27;20557;-63
2021/05/25 10:52:24;;;;;;;8.40;1.83;;;16.40;97.70;;;;;;5260565;27;20170;-63
2021/05/25 10:55:00;;;;;;;6.33;1.93;;;16.20;96.20;;;;;;5260434;27;20134;-62
2021/05/25 10:57:51;;;;;;;8.90;2.23;;;15.70;96.10;;;;;;5259979;27;20109;-61
2021/05/25 11:00:20;;;;;;;7.80;1.97;;;15.70;97.90;;;;;;5263143;27;20190;-63
2021/05/25 11:02:50;;;;;;;5.27;1.50;;;16.30;96.00;;;;;;5258299;27;20131;-62
2021/05/25 11:05:38;;;;;;;7.33;2.00;;;16.80;95.60;;;;;;5259570;27;20115;-61
2021/05/25 11:08:40;;;;;;;7.13;1.77;;;17.00;94.40;;;;;;5261144;27;20108;-63
2021/05/25 11:11:29;;;;;;;13.13;2.33;;;17.20;94.70;;;;;;5258858;27;20108;-63
2021/05/25 11:14:12;;;;;;;5.83;1.60;;;16.70;93.70;;;;;;5259260;27;20576;-62
2021/05/25 11:16:42;;;;;;;5.63;1.70;;;15.90;95.90;;;;;;5260674;27;20157;-63
2021/05/25 11:22:26;;;;;;;9.23;1.70;;;16.40;95.80;;;;;;5193951;27;20442;-62
2021/05/25 11:25:05;;;;;;;11.87;1.90;;;17.00;95.20;;;;;;5193853;27;20128;-63
2021/05/25 11:27:35;;;;;;;3.97;1.80;;;17.20;92.10;;;;;;5192853;27;20163;-60
2021/05/25 11:30:06;;;;;;;10.50;2.10;;;16.60;93.00;;;;;;5193555;27;20107;-64
2021/05/25 11:32:38;;;;;;;2.90;1.30;;;16.20;93.40;;;;;;5193754;27;20283;-64
2021/05/25 11:35:06;;;;;;;6.03;1.47;;;15.80;94.40;;;;;;5193926;27;20110;-64
2021/05/25 11:37:35;;;;;;;1.33;0.80;;;15.70;93.60;;;;;;5194305;27;20124;-64
2021/05/25 11:40:02;;;;;;;3.23;0.90;;;15.80;92.70;;;;;;5194051;27;20221;-63
2021/05/25 11:42:31;;;;;;;2.80;0.90;;;16.00;91.40;;;;;;5193092;27;20124;-62
2021/05/25 11:44:59;;;;;;;6.20;1.17;;;16.10;91.60;;;;;;5194123;27;20226;-64
2021/05/25 11:47:26;;;;;;;2.07;0.80;;;16.20;90.40;;;;;;5193755;27;20160;-61
2021/05/25 11:49:53;;;;;;;3.90;0.90;;;15.80;90.70;;;;;;5193712;27;20116;-63
2021/05/25 11:52:30;;;;;;;5.27;1.07;;;15.60;91.40;;;;;;5193604;27;20248;-64
2021/05/25 11:54:59;;;;;;;2.93;1.50;;;15.50;92.50;;;;;;5193702;27;20121;-62
2021/05/25 11:57:31;;;;;;;1.70;0.90;;;15.10;92.70;;;;;;5193912;27;20176;-63
2021/05/25 12:00:00;;;;;;;3.87;0.90;;;14.90;94.00;;;;;;5248288;27;20122;-63
2021/05/25 12:02:28;;;;;;;4.43;1.10;;;14.80;95.10;;;;;;5260559;27;20130;-63
2021/05/25 12:05:05;;;;;;;2.87;0.80;;;14.80;95.60;;;;;;5260536;27;20108;-63
2021/05/25 12:07:32;;;;;;;6.33;1.20;;;14.60;93.80;;;;;;5260096;27;20119;-62
2021/05/25 12:10:02;;;;;;;3.53;0.80;;;14.60;94.00;;;;;;5260087;27;20566;-64
2021/05/25 12:12:29;;;;;;;7.20;1.03;;;14.50;93.90;;;;;;5260407;27;20149;-64
2021/05/25 12:14:59;;;;;;;7.77;1.03;;;14.60;95.10;;;;;;5260529;27;20132;-62
2021/05/25 12:17:27;;;;;;;4.70;1.00;;;14.90;95.20;;;;;;5260579;27;20153;-62
2021/05/25 12:19:56;;;;;;;4.17;1.50;;;14.80;95.00;;;;;;5261292;27;20126;-62
2021/05/25 12:22:34;;;;;;;3.97;0.90;;;15.10;94.70;;;;;;5196938;27;1719874;-63
2021/05/25 12:25:14;;;;;;;8.70;1.50;;;15.00;94.00;;;;;;5260982;27;20556;-61
2021/05/25 12:27:41;;;;;;;1.67;0.93;;;14.80;94.80;;;;;;5261184;27;20245;-63
2021/05/25 12:30:10;;;;;;;2.77;0.70;;;14.40;95.30;;;;;;5260101;27;20115;-62
2021/05/25 12:32:36;;;;;;;2.40;0.93;;;14.00;96.10;;;;;;5262038;27;20108;-62
2021/05/25 12:35:03;;;;;;;2.50;1.00;;;13.70;96.80;;;;;;5259736;27;20425;-62
2021/05/25 12:37:30;;;;;;;4.80;1.00;;;13.70;97.60;;;;;;5260206;27;20107;-62
2021/05/25 12:40:05;;;;;;;2.93;0.70;;;13.80;97.90;;;;;;5261838;27;20115;-62
2021/05/25 12:42:35;;;;;;;3.87;0.90;;;13.80;97.60;;;;;;5259369;27;20142;-62
2021/05/25 12:45:09;;;;;;;3.17;0.87;;;13.90;98.00;;;;;;5259809;27;20165;-62
2021/05/25 12:47:53;;;;;;;3.20;1.00;;;14.20;98.10;;;;;;5259134;27;20147;-66
2021/05/25 12:50:36;;;;;;;2.67;0.70;;;14.00;98.00;;;;;;5259637;27;20117;-62
2021/05/25 12:53:08;;;;;;;0.70;0.50;;;13.90;99.60;;;;;;5260366;27;20546;-63
2021/05/25 12:55:38;;;;;;;1.70;0.60;;;13.90;99.90;;;;;;5259509;27;20123;-63
2021/05/25 12:58:04;;;;;;;2.97;0.80;;;14.40;99.90;;;;;;5261299;27;20162;-63
2021/05/25 13:00:36;;;;;;;2.13;0.73;;;15.00;99.40;;;;;;5260396;27;20144;-62
2021/05/25 13:03:04;;;;;;;2.23;1.27;;;15.10;98.60;;;;;;5260155;27;20139;-61
2021/05/25 13:05:32;;;;;;;2.40;0.80;;;15.00;98.40;;;;;;5262680;27;20138;-63
2021/05/25 13:08:03;;;;;;;2.83;0.87;;;15.20;99.00;;;;;;5261492;27;20107;-62
2021/05/25 13:10:36;;;;;;;3.57;1.13;;;15.20;97.60;;;;;;5261143;27;20133;-65